Creech Saint Michael, United Kingdom
Current Conditions -  °F | °C
As of 7:50 PM on Saturday 20 Dec 2014 (Local Time) from EGDY Reporting Station
Scattered Clouds Scattered Clouds  
Wind Chill: 41°   Ceiling: Unl
Heat Index: 41°   Visibility: 6mi
Dew Point: 37°   Wind: 3mph
Humidity: 87%   Direction: 210°SSW
Pressure: 30.48"   Gusts: NA
Location:  51.02°N, 3.04°W
Report Text: EGDY 201950Z AUTO 21003KT 9999 SCT036/// 05/03 Q1032
Loading
Personal Weather Stations






























Interactive Weather Map New forecast layout! Learn more

10-Day Weather Forecast

Advertisements
Track Severe Weather on mobile